Terminal Aerodrome Forecast
Issued by NWS

Home | Current Version | Previous Version | Text Only | Print | Product List | Glossary On
Versions: 1 2 3 4 5 6 7 8 9 10 11 12 13 14 15 16 17
404
FTUS42 KTAE 181737
TAFABY
TAF
KABY 181737Z 1818/1918 VRB05KT P6SM -RA OVC005
     FM182000 27007KT 6SM -RA BR BKN012
     FM190200 VRB03KT 3SM BR OVC004
     FM190600 VRB03KT 1/2SM FG OVC004
     FM191500 23005KT P6SM BKN015=

USA.gov is the U.S. government's official web portal to all federal, state and local government web resources and services.